createdAt,value
2023-08-24T00:02:38.510Z,76.40
2023-08-24T00:05:26.657Z,76.50
2023-08-24T00:08:15.305Z,76.60
2023-08-24T00:11:03.798Z,76.70
2023-08-24T00:13:52.119Z,77.00
2023-08-24T00:16:39.811Z,77.40
2023-08-24T00:19:27.316Z,77.20
2023-08-24T00:22:15.392Z,77.50
2023-08-24T00:25:04.934Z,78.40
2023-08-24T00:27:53.330Z,78.80
2023-08-24T00:30:41.124Z,78.70
2023-08-24T00:33:28.372Z,78.20
2023-08-24T00:36:16.797Z,78.70
2023-08-24T00:39:04.605Z,78.70
2023-08-24T00:41:54.073Z,78.60
2023-08-24T00:44:41.372Z,79.60
2023-08-24T00:47:29.185Z,80.10
2023-08-24T00:50:18.239Z,80.20
2023-08-24T00:53:06.877Z,80.80
2023-08-24T00:55:54.464Z,81.00
2023-08-24T00:58:45.702Z,80.70
2023-08-24T01:01:33.093Z,81.20
2023-08-24T01:04:21.055Z,81.20
2023-08-24T01:07:09.510Z,81.70
2023-08-24T01:09:57.793Z,81.70
2023-08-24T01:12:58.818Z,81.90
2023-08-24T01:15:52.970Z,82.10
2023-08-24T01:18:41.885Z,82.00
2023-08-24T01:21:30.829Z,82.40
2023-08-24T01:24:31.886Z,82.00
2023-08-24T01:27:22.618Z,81.40
2023-08-24T01:30:10.828Z,82.40
2023-08-24T01:32:58.975Z,82.40
2023-08-24T01:35:47.774Z,82.80
2023-08-24T01:38:35.347Z,83.00
2023-08-24T01:41:29.692Z,83.60
2023-08-24T01:44:21.355Z,83.80
2023-08-24T01:47:13.073Z,83.30
2023-08-24T01:50:01.354Z,83.40
2023-08-24T01:52:48.864Z,83.00
2023-08-24T01:55:37.194Z,83.10
2023-08-24T01:58:24.813Z,83.30
2023-08-24T02:01:14.385Z,82.90
2023-08-24T02:04:01.735Z,83.70
2023-08-24T02:06:49.691Z,83.40
2023-08-24T02:09:36.908Z,83.40
2023-08-24T02:12:25.015Z,83.70
2023-08-24T02:15:12.306Z,83.90
2023-08-24T02:18:02.138Z,84.00
2023-08-24T02:20:49.842Z,84.10
2023-08-24T02:23:37.183Z,84.20
2023-08-24T02:26:27.067Z,83.90
2023-08-24T02:29:14.325Z,83.80
2023-08-24T02:32:02.553Z,84.50
2023-08-24T02:34:51.078Z,84.40
2023-08-24T02:37:39.523Z,84.00
2023-08-24T02:40:26.735Z,84.40
2023-08-24T02:43:14.875Z,84.70
2023-08-24T02:46:05.254Z,85.10
2023-08-24T02:48:52.750Z,84.90
2023-08-24T02:51:42.564Z,84.90
2023-08-24T02:54:29.775Z,85.10
2023-08-24T02:57:17.894Z,85.20
2023-08-24T03:00:08.412Z,85.20
2023-08-24T03:02:55.808Z,85.50
2023-08-24T03:05:56.645Z,85.80
2023-08-24T03:08:45.926Z,85.90
2023-08-24T03:11:33.218Z,86.10
2023-08-24T03:14:21.708Z,86.00
2023-08-24T03:17:08.998Z,86.10
2023-08-24T03:19:57.333Z,86.30
2023-08-24T03:22:46.182Z,86.40
2023-08-24T03:25:37.884Z,86.70
2023-08-24T03:28:25.537Z,86.70
2023-08-24T03:31:13.347Z,86.60
2023-08-24T03:34:01.340Z,86.80
2023-08-24T03:36:51.256Z,86.80
2023-08-24T03:39:40.139Z,87.20
2023-08-24T03:42:28.728Z,87.40
2023-08-24T03:45:16.892Z,86.70
2023-08-24T03:48:06.676Z,87.20
2023-08-24T03:50:55.518Z,87.60
2023-08-24T03:53:43.358Z,87.90
2023-08-24T03:56:31.949Z,87.90
2023-08-24T03:59:21.742Z,88.10
2023-08-24T04:02:09.509Z,88.30
2023-08-24T04:04:57.238Z,88.10
2023-08-24T04:07:45.511Z,88.50
2023-08-24T04:10:32.798Z,88.20
2023-08-24T04:13:21.036Z,88.30
2023-08-24T04:16:09.645Z,88.70
2023-08-24T04:18:58.273Z,88.90
2023-08-24T04:21:45.996Z,89.30
2023-08-24T04:24:33.244Z,89.30
2023-08-24T04:27:21.401Z,89.20
2023-08-24T04:30:13.606Z,89.70
2023-08-24T04:33:04.728Z,89.50
2023-08-24T04:35:52.028Z,89.20
2023-08-24T04:38:40.163Z,89.60
2023-08-24T04:41:28.698Z,89.60
2023-08-24T04:44:16.806Z,89.70
2023-08-24T04:47:04.116Z,89.60
2023-08-24T04:49:53.524Z,89.40
2023-08-24T04:52:41.421Z,89.70
2023-08-24T04:55:29.144Z,89.80
2023-08-24T04:58:16.377Z,89.40
2023-08-24T05:01:04.563Z,89.60
2023-08-24T05:03:52.800Z,89.90
2023-08-24T05:06:42.359Z,89.80
2023-08-24T05:09:30.052Z,89.50
2023-08-24T05:12:17.790Z,89.30
2023-08-24T05:15:05.966Z,89.40
2023-08-24T05:17:56.473Z,89.50
2023-08-24T05:20:43.716Z,88.90
2023-08-24T05:23:33.436Z,89.00
2023-08-24T05:26:24.110Z,88.60
2023-08-24T05:29:11.863Z,88.70
2023-08-24T05:32:00.496Z,88.20
2023-08-24T05:34:48.250Z,88.40
2023-08-24T05:37:36.252Z,88.60
2023-08-24T05:40:25.612Z,88.60
2023-08-24T05:43:12.984Z,88.70
2023-08-24T05:46:00.269Z,88.60
2023-08-24T05:48:48.479Z,87.50
2023-08-24T05:51:35.726Z,86.80
2023-08-24T05:54:23.948Z,86.90
2023-08-24T05:57:13.022Z,86.90
2023-08-24T06:00:00.254Z,87.10
2023-08-24T06:02:47.966Z,86.10
2023-08-24T06:05:35.732Z,86.00
2023-08-24T06:08:23.222Z,85.70
2023-08-24T06:11:11.469Z,84.70
2023-08-24T06:14:00.045Z,83.80
2023-08-24T06:16:50.070Z,84.10
2023-08-24T06:19:37.317Z,82.90
2023-08-24T06:22:25.061Z,83.90
2023-08-24T06:25:12.335Z,83.40
2023-08-24T06:28:00.667Z,82.90
2023-08-24T06:30:49.298Z,83.70
2023-08-24T06:33:38.451Z,83.80
2023-08-24T06:36:25.908Z,83.40
2023-08-24T06:39:14.207Z,82.50
2023-08-24T06:42:03.500Z,82.00
2023-08-24T06:44:52.647Z,80.70
2023-08-24T06:47:41.520Z,79.80
2023-08-24T06:50:28.851Z,78.80
2023-08-24T06:53:16.602Z,78.80
2023-08-24T06:56:04.961Z,78.80
2023-08-24T06:58:52.366Z,77.30
2023-08-24T07:01:40.129Z,77.00
2023-08-24T07:04:29.061Z,77.10
2023-08-24T07:07:16.865Z,77.40
2023-08-24T07:10:05.610Z,77.50
2023-08-24T07:12:52.876Z,76.10
2023-08-24T07:15:41.250Z,75.10
2023-08-24T07:18:29.025Z,75.40
2023-08-24T07:21:18.554Z,75.60
2023-08-24T07:24:06.544Z,75.00
2023-08-24T07:26:53.848Z,73.70
2023-08-24T07:29:42.668Z,73.10
2023-08-24T07:32:30.800Z,73.00
2023-08-24T07:35:19.125Z,73.40
2023-08-24T07:38:08.233Z,72.90
2023-08-24T07:40:56.014Z,71.70
2023-08-24T07:43:43.295Z,71.90
2023-08-24T07:46:31.594Z,71.20
2023-08-24T07:49:18.878Z,71.10
2023-08-24T07:52:07.156Z,70.40
2023-08-24T07:54:56.984Z,70.00
2023-08-24T07:57:44.260Z,70.40
2023-08-24T08:00:32.462Z,70.30
2023-08-24T08:03:19.958Z,69.30
2023-08-24T08:06:08.190Z,69.70
2023-08-24T08:08:55.946Z,68.20
2023-08-24T08:11:44.532Z,68.30
2023-08-24T08:14:32.629Z,68.10
2023-08-24T08:17:19.974Z,67.20
2023-08-24T08:20:09.181Z,66.50
2023-08-24T08:22:57.018Z,66.60
2023-08-24T08:25:44.267Z,66.50
2023-08-24T08:28:36.193Z,66.90
2023-08-24T08:31:23.748Z,66.40
2023-08-24T08:34:11.955Z,66.80
2023-08-24T08:36:59.732Z,66.30
2023-08-24T08:39:47.457Z,65.20
2023-08-24T08:42:36.737Z,63.50
2023-08-24T08:45:27.760Z,63.90
2023-08-24T08:48:15.545Z,63.90
2023-08-24T08:51:04.124Z,63.70
2023-08-24T08:53:51.561Z,62.90
2023-08-24T08:56:39.904Z,61.90
2023-08-24T08:59:31.857Z,62.90
2023-08-24T09:02:22.678Z,60.90
2023-08-24T09:05:09.959Z,59.90
2023-08-24T09:08:00.581Z,61.50
2023-08-24T09:10:48.571Z,61.00
2023-08-24T09:13:35.836Z,61.00
2023-08-24T09:16:23.558Z,62.00
2023-08-24T09:19:14.050Z,62.40
2023-08-24T09:22:03.046Z,60.10
2023-08-24T09:24:51.444Z,60.20
2023-08-24T09:27:38.922Z,60.20
2023-08-24T09:30:30.962Z,60.60
2023-08-24T09:33:19.393Z,59.40
2023-08-24T09:36:08.650Z,59.70
2023-08-24T09:38:57.283Z,60.00
2023-08-24T09:41:47.219Z,58.30
2023-08-24T09:44:34.436Z,58.70
2023-08-24T09:47:21.761Z,58.10
2023-08-24T09:50:09.865Z,57.10
2023-08-24T09:53:03.295Z,57.80
2023-08-24T09:55:55.933Z,58.90
2023-08-24T09:58:44.731Z,57.80
2023-08-24T10:01:32.501Z,57.20
2023-08-24T10:04:24.389Z,56.00
2023-08-24T10:07:16.033Z,55.90
2023-08-24T10:10:08.993Z,55.30
2023-08-24T10:13:01.011Z,55.20
2023-08-24T10:15:49.889Z,52.50
2023-08-24T10:18:38.755Z,53.10
2023-08-24T10:21:27.905Z,53.40
2023-08-24T10:24:17.678Z,53.30
2023-08-24T10:27:09.585Z,53.20
2023-08-24T10:29:59.104Z,54.00
2023-08-24T10:32:50.094Z,53.50
2023-08-24T10:35:37.825Z,53.80
2023-08-24T10:38:27.267Z,53.80
2023-08-24T10:41:16.385Z,53.70
2023-08-24T10:44:09.986Z,53.90
2023-08-24T10:47:16.148Z,51.40
2023-08-24T10:50:04.345Z,52.10
2023-08-24T10:52:52.376Z,52.50
2023-08-24T10:55:39.740Z,52.00
2023-08-24T10:58:27.863Z,52.30
2023-08-24T11:01:20.270Z,51.30
2023-08-24T11:04:09.666Z,51.10
2023-08-24T11:06:59.998Z,50.70
2023-08-24T11:09:48.944Z,50.90
2023-08-24T11:13:10.589Z,50.20
2023-08-24T11:16:00.102Z,50.50
2023-08-24T11:18:50.942Z,46.80
2023-08-24T11:21:39.767Z,45.70
2023-08-24T11:24:27.046Z,47.80
2023-08-24T11:27:14.975Z,48.20
2023-08-24T11:30:02.961Z,48.60
2023-08-24T11:32:54.785Z,47.80
2023-08-24T11:35:45.454Z,45.50
2023-08-24T11:38:39.995Z,45.30
2023-08-24T11:41:27.936Z,45.80
2023-08-24T11:44:27.309Z,47.20
2023-08-24T11:47:17.389Z,46.50
2023-08-24T11:50:05.429Z,47.30
2023-08-24T11:52:54.354Z,48.20
2023-08-24T11:55:48.797Z,47.60
2023-08-24T11:58:50.326Z,44.30
2023-08-24T12:01:38.170Z,42.10
2023-08-24T12:04:25.456Z,43.70
2023-08-24T12:07:13.610Z,44.10
2023-08-24T12:10:03.179Z,45.00
2023-08-24T12:12:51.553Z,46.00
2023-08-24T12:15:39.100Z,46.40
2023-08-24T12:18:27.572Z,45.10
2023-08-24T12:21:14.906Z,45.20
2023-08-24T12:24:06.730Z,46.30
2023-08-24T12:26:59.611Z,44.40
2023-08-24T12:29:47.374Z,44.30
2023-08-24T12:32:45.170Z,45.40
2023-08-24T12:35:32.365Z,44.90
2023-08-24T12:38:19.754Z,44.20
2023-08-24T12:41:07.068Z,44.70
2023-08-24T12:43:56.815Z,43.20
2023-08-24T12:46:44.210Z,43.80
2023-08-24T12:49:31.456Z,44.80
2023-08-24T12:52:18.732Z,45.50
2023-08-24T12:55:07.165Z,44.90
2023-08-24T12:57:54.424Z,45.40
2023-08-24T13:00:44.280Z,44.70
2023-08-24T13:03:32.045Z,44.70
2023-08-24T13:09:10.249Z,43.90
2023-08-24T13:11:57.584Z,43.60
2023-08-24T13:14:44.934Z,43.70
2023-08-24T13:17:34.013Z,44.80
2023-08-24T13:20:21.890Z,43.00
2023-08-24T13:23:09.865Z,43.30
2023-08-24T13:25:59.057Z,43.90
2023-08-24T13:28:47.664Z,44.50
2023-08-24T13:31:36.166Z,44.10
2023-08-24T13:34:24.754Z,43.80
2023-08-24T13:37:12.469Z,44.80
2023-08-24T13:39:59.926Z,44.90
2023-08-24T13:42:47.205Z,44.10
2023-08-24T13:45:36.026Z,42.60
2023-08-24T13:48:25.694Z,43.00
2023-08-24T13:51:16.468Z,43.00
2023-08-24T13:54:03.983Z,43.40
2023-08-24T13:56:51.742Z,43.30
2023-08-24T13:59:39.258Z,43.70
2023-08-24T14:02:26.760Z,44.60
2023-08-24T14:05:15.008Z,44.00
2023-08-24T14:08:04.026Z,43.80
2023-08-24T14:10:53.400Z,44.20
2023-08-24T14:13:40.641Z,44.90
2023-08-24T14:16:28.945Z,43.50
2023-08-24T14:19:16.292Z,43.60
2023-08-24T14:22:04.034Z,41.50
2023-08-24T14:24:52.655Z,42.90
2023-08-24T14:27:42.762Z,41.90
2023-08-24T14:30:32.612Z,41.20
2023-08-24T14:33:20.296Z,42.40
2023-08-24T14:36:08.248Z,42.00
2023-08-24T14:38:55.789Z,42.20
2023-08-24T14:41:45.331Z,43.10
2023-08-24T14:44:33.074Z,41.70
2023-08-24T14:47:21.975Z,41.00
2023-08-24T14:50:12.000Z,41.70
2023-08-24T14:52:59.928Z,41.20
2023-08-24T14:55:47.119Z,43.00
2023-08-24T14:58:36.680Z,43.20
2023-08-24T15:01:23.981Z,43.20
2023-08-24T15:04:12.161Z,42.20
2023-08-24T15:06:59.408Z,41.80
2023-08-24T15:09:46.885Z,41.20
2023-08-24T15:12:34.160Z,41.50
2023-08-24T15:15:22.870Z,40.70
2023-08-24T15:18:12.140Z,41.30
2023-08-24T15:20:59.714Z,41.10
2023-08-24T15:23:47.024Z,42.10
2023-08-24T15:26:36.102Z,40.00
2023-08-24T15:29:25.346Z,40.50
2023-08-24T15:32:14.137Z,41.10
2023-08-24T15:35:02.536Z,39.90
2023-08-24T15:37:50.235Z,42.00
2023-08-24T15:40:38.323Z,40.70
2023-08-24T15:43:26.054Z,41.70
2023-08-24T15:46:14.034Z,41.60
2023-08-24T15:49:03.082Z,41.90
2023-08-24T15:51:50.527Z,42.50
2023-08-24T15:54:38.664Z,43.10
2023-08-24T15:57:25.970Z,41.20
2023-08-24T16:00:14.885Z,40.80
2023-08-24T16:03:03.030Z,42.30
2023-08-24T16:05:51.635Z,41.20
2023-08-24T16:08:39.835Z,41.80
2023-08-24T16:11:27.696Z,41.70
2023-08-24T16:14:14.936Z,42.00
2023-08-24T16:17:03.070Z,41.80
2023-08-24T16:19:50.361Z,42.20
2023-08-24T16:22:40.031Z,42.40
2023-08-24T16:25:27.304Z,41.70
2023-08-24T16:28:15.180Z,41.10
2023-08-24T16:31:04.190Z,43.50
2023-08-24T16:33:51.917Z,47.10
2023-08-24T16:36:41.862Z,49.00
2023-08-24T16:39:31.821Z,47.40
2023-08-24T16:42:20.124Z,49.60
2023-08-24T16:45:09.314Z,50.40
2023-08-24T16:47:56.764Z,53.70
2023-08-24T16:50:45.272Z,54.10
2023-08-24T16:53:32.988Z,54.90
2023-08-24T16:56:22.108Z,55.30
2023-08-24T16:59:09.888Z,56.30
2023-08-24T17:01:57.642Z,57.50
2023-08-24T17:04:45.527Z,57.10
2023-08-24T17:07:33.624Z,57.50
2023-08-24T17:10:20.873Z,59.70
2023-08-24T17:13:10.636Z,59.20
2023-08-24T17:15:57.861Z,59.20
2023-08-24T17:18:46.623Z,59.60
2023-08-24T17:21:33.876Z,60.30
2023-08-24T17:24:21.770Z,60.60
2023-08-24T17:27:09.076Z,60.20
2023-08-24T17:29:58.377Z,60.60
2023-08-24T17:32:45.740Z,60.80
2023-08-24T17:35:33.606Z,61.90
2023-08-24T17:38:21.547Z,61.90
2023-08-24T17:41:10.057Z,62.20
2023-08-24T17:43:58.135Z,62.60
2023-08-24T17:46:46.980Z,64.00
2023-08-24T17:49:35.232Z,65.10
2023-08-24T17:52:22.564Z,63.20
2023-08-24T17:55:11.000Z,65.10
2023-08-24T17:57:58.248Z,66.30
2023-08-24T18:00:46.492Z,66.60
2023-08-24T18:03:35.780Z,66.80
2023-08-24T18:06:23.078Z,67.30
2023-08-24T18:09:10.878Z,68.30
2023-08-24T18:11:58.900Z,68.50
2023-08-24T18:14:47.391Z,68.20
2023-08-24T18:17:35.590Z,68.50
2023-08-24T18:20:24.124Z,68.80
2023-08-24T18:23:12.653Z,69.00
2023-08-24T18:26:00.613Z,69.30
2023-08-24T18:28:48.620Z,69.50
2023-08-24T18:31:37.929Z,69.30
2023-08-24T18:34:26.981Z,69.90
2023-08-24T18:37:16.616Z,69.30
2023-08-24T18:40:08.108Z,70.00
2023-08-24T18:42:55.363Z,70.20
2023-08-24T18:45:43.284Z,70.20
2023-08-24T18:48:32.369Z,70.70
2023-08-24T18:51:19.730Z,70.10
2023-08-24T18:54:09.476Z,70.50
2023-08-24T18:56:56.841Z,70.90
2023-08-24T18:59:44.966Z,70.30
2023-08-24T19:02:32.264Z,70.40
2023-08-24T19:05:19.514Z,70.60
2023-08-24T19:08:07.827Z,70.40
2023-08-24T19:10:56.535Z,70.50
2023-08-24T19:13:45.591Z,70.80
2023-08-24T19:16:33.388Z,71.00
2023-08-24T19:19:20.646Z,71.20
2023-08-24T19:22:08.857Z,70.70
2023-08-24T19:24:56.121Z,71.20
2023-08-24T19:27:46.906Z,71.50
2023-08-24T19:30:38.473Z,70.90
2023-08-24T19:33:26.566Z,71.00
2023-08-24T19:36:14.650Z,71.20
2023-08-24T19:39:01.892Z,71.30
2023-08-24T19:41:59.264Z,71.60
2023-08-24T19:44:49.249Z,71.70
2023-08-24T19:47:37.470Z,71.80
2023-08-24T19:50:24.642Z,72.30
2023-08-24T19:53:13.098Z,72.20
2023-08-24T19:56:00.332Z,72.50
2023-08-24T19:58:48.176Z,72.50
2023-08-24T20:01:36.881Z,72.70
2023-08-24T20:04:26.103Z,73.20
2023-08-24T20:07:13.331Z,73.40
2023-08-24T20:10:01.444Z,73.60
2023-08-24T20:12:50.993Z,73.70
2023-08-24T20:15:38.235Z,73.50
2023-08-24T20:18:27.748Z,72.90
2023-08-24T20:21:15.515Z,73.30
2023-08-24T20:24:02.836Z,72.80
2023-08-24T20:26:50.115Z,73.30
2023-08-24T20:29:37.492Z,72.90
2023-08-24T20:32:25.233Z,73.10
2023-08-24T20:35:13.764Z,72.70
2023-08-24T20:38:01.944Z,72.70
2023-08-24T20:40:49.414Z,72.90
2023-08-24T20:43:37.533Z,66.50
2023-08-24T20:46:25.473Z,69.60
2023-08-24T20:49:13.316Z,72.80
2023-08-24T20:52:02.540Z,73.10
2023-08-24T20:54:49.882Z,73.20
2023-08-24T20:57:37.140Z,74.50
2023-08-24T21:00:24.888Z,76.70
2023-08-24T21:03:12.828Z,80.20
2023-08-24T21:06:00.382Z,83.10
2023-08-24T21:08:58.503Z,87.00
2023-08-24T21:11:51.243Z,89.70
2023-08-24T21:14:38.880Z,91.60
2023-08-24T21:17:27.210Z,94.30
2023-08-24T21:20:15.583Z,92.50
2023-08-24T21:23:02.895Z,96.80
2023-08-24T21:25:52.649Z,94.00
2023-08-24T21:28:40.005Z,95.00
2023-08-24T21:31:27.822Z,96.20
2023-08-24T21:34:15.072Z,98.70
2023-08-24T21:37:03.306Z,99.20
2023-08-24T21:39:50.786Z,97.00
2023-08-24T21:42:40.490Z,99.60
2023-08-24T21:45:28.230Z,100.00
2023-08-24T21:48:15.978Z,98.50
2023-08-24T21:51:03.740Z,100.00
2023-08-24T21:53:51.834Z,99.00
2023-08-24T21:56:39.073Z,100.00
2023-08-24T21:59:28.581Z,100.00
2023-08-24T22:02:15.826Z,100.00
2023-08-24T22:05:04.093Z,100.00
2023-08-24T22:07:51.641Z,100.00
2023-08-24T22:10:40.017Z,100.00
2023-08-24T22:13:27.785Z,98.70
2023-08-24T22:16:17.843Z,100.00
2023-08-24T22:19:10.564Z,100.00
2023-08-24T22:22:02.084Z,100.00
2023-08-24T22:24:49.373Z,100.00
2023-08-24T22:27:37.611Z,100.00
2023-08-24T22:30:24.918Z,100.00
2023-08-24T22:33:14.153Z,100.00
2023-08-24T22:36:01.403Z,100.00
2023-08-24T22:38:49.582Z,100.00
2023-08-24T22:41:36.863Z,100.00
2023-08-24T22:44:25.326Z,100.00
2023-08-24T22:47:13.984Z,100.00
2023-08-24T22:50:12.654Z,100.00
2023-08-24T22:53:00.045Z,100.00
2023-08-24T22:55:48.252Z,100.00
2023-08-24T22:58:35.642Z,100.00
2023-08-24T23:01:23.946Z,100.00
2023-08-24T23:04:11.722Z,100.00
2023-08-24T23:07:08.422Z,100.00
2023-08-24T23:09:56.971Z,100.00
2023-08-24T23:12:44.829Z,100.00
2023-08-24T23:15:32.130Z,100.00
2023-08-24T23:18:20.321Z,100.00
2023-08-24T23:21:07.587Z,100.00
2023-08-24T23:23:57.191Z,100.00
2023-08-24T23:26:44.436Z,100.00
2023-08-24T23:29:32.587Z,100.00
2023-08-24T23:32:19.875Z,100.00
2023-08-24T23:35:09.225Z,100.00
2023-08-24T23:37:56.483Z,100.00
2023-08-24T23:40:46.115Z,100.00
2023-08-24T23:43:34.399Z,100.00
2023-08-24T23:46:21.733Z,100.00
2023-08-24T23:49:10.011Z,100.00
2023-08-24T23:51:57.402Z,100.00
2023-08-24T23:54:45.579Z,100.00
2023-08-24T23:57:34.770Z,100.00
